createdAt,value
2023-02-12T05:51:54.168Z,100.00
2023-02-12T05:54:21.150Z,100.00
2023-02-12T05:56:48.034Z,100.00
2023-02-12T05:59:17.256Z,100.00
2023-02-12T06:01:44.577Z,100.00
2023-02-12T06:04:19.275Z,100.00
2023-02-12T06:06:46.964Z,100.00
2023-02-12T06:09:13.750Z,100.00
2023-02-12T06:11:41.147Z,100.00
2023-02-12T06:14:08.987Z,100.00
2023-02-12T06:16:37.295Z,100.00
2023-02-12T06:19:04.990Z,100.00
2023-02-12T06:21:32.276Z,100.00
2023-02-12T06:23:59.123Z,100.00
2023-02-12T06:26:26.524Z,100.00
2023-02-12T06:28:53.379Z,100.00
2023-02-12T06:31:30.987Z,100.00
2023-02-12T06:33:59.972Z,100.00
2023-02-12T06:36:27.021Z,100.00
2023-02-12T06:38:53.968Z,100.00
2023-02-12T06:41:21.160Z,100.00
2023-02-12T06:43:49.355Z,99.71
2023-02-12T06:46:16.291Z,96.58
2023-02-12T06:48:43.354Z,94.41
2023-02-12T06:51:12.286Z,89.68
2023-02-12T06:53:39.067Z,85.80
2023-02-12T06:56:10.639Z,84.64
2023-02-12T06:58:39.272Z,84.42
2023-02-12T07:01:12.787Z,83.84
2023-02-12T07:03:41.043Z,83.22
2023-02-12T07:06:08.727Z,82.10
2023-02-12T07:08:36.689Z,81.74
2023-02-12T07:11:04.061Z,82.19
2023-02-12T07:13:34.163Z,82.20
2023-02-12T07:16:05.403Z,82.51
2023-02-12T07:18:35.887Z,82.35
2023-02-12T07:21:03.242Z,81.48
2023-02-12T07:23:30.707Z,81.81
2023-02-12T07:25:59.071Z,82.01
2023-02-12T07:28:26.852Z,81.96
2023-02-12T07:30:53.900Z,81.50
2023-02-12T07:33:20.621Z,81.73
2023-02-12T07:35:47.291Z,82.11
2023-02-12T07:38:13.993Z,81.63
2023-02-12T07:40:40.715Z,82.23
2023-02-12T07:43:07.939Z,82.72
2023-02-12T07:45:35.816Z,82.40
2023-02-12T07:48:03.406Z,80.82
2023-02-12T07:50:30.288Z,80.30
2023-02-12T07:52:57.348Z,80.58
2023-02-12T07:55:25.529Z,80.63
2023-02-12T07:57:52.177Z,80.87
2023-02-12T08:00:19.292Z,79.64
2023-02-12T08:02:53.217Z,78.09
2023-02-12T08:05:19.908Z,77.29
2023-02-12T08:07:46.781Z,76.66
2023-02-12T08:10:13.606Z,75.63
2023-02-12T08:12:40.455Z,74.84
2023-02-12T08:15:08.111Z,74.88
2023-02-12T08:17:35.661Z,75.99
2023-02-12T08:20:02.329Z,75.66
2023-02-12T08:22:29.322Z,74.66
2023-02-12T08:24:56.094Z,74.42
2023-02-12T08:27:23.041Z,74.88
2023-02-12T08:29:49.940Z,74.50
2023-02-12T08:32:16.733Z,74.21
2023-02-12T08:34:43.512Z,73.73
2023-02-12T08:37:10.238Z,73.73
2023-02-12T08:39:38.087Z,74.25
2023-02-12T08:42:05.234Z,74.79
2023-02-12T08:44:32.473Z,73.22
2023-02-12T08:47:02.226Z,71.53
2023-02-12T08:49:29.327Z,71.21
2023-02-12T08:51:56.890Z,70.38
2023-02-12T08:54:28.932Z,70.68
2023-02-12T08:57:01.739Z,69.92
2023-02-12T08:59:29.497Z,68.35
2023-02-12T09:02:00.138Z,68.16
2023-02-12T09:04:27.812Z,67.97
2023-02-12T09:06:54.867Z,67.28
2023-02-12T09:09:23.919Z,67.64
2023-02-12T09:11:54.667Z,68.28
2023-02-12T09:14:23.132Z,68.31
2023-02-12T09:16:51.917Z,68.02
2023-02-12T09:19:18.814Z,67.70
2023-02-12T09:21:45.534Z,67.93
2023-02-12T09:24:12.464Z,68.40
2023-02-12T09:26:39.998Z,69.16
2023-02-12T09:29:07.349Z,69.34
2023-02-12T09:31:34.744Z,69.74
2023-02-12T09:34:05.656Z,68.19
2023-02-12T09:36:33.329Z,67.61
2023-02-12T09:39:00.186Z,67.94
2023-02-12T09:41:47.111Z,66.35
2023-02-12T09:44:22.870Z,66.06
2023-02-12T09:47:31.505Z,66.94
2023-02-12T09:50:17.161Z,64.96
2023-02-12T09:52:43.801Z,63.74
2023-02-12T09:55:13.997Z,63.17
2023-02-12T09:57:41.013Z,64.16
2023-02-12T10:00:10.515Z,64.10
2023-02-12T10:02:39.262Z,62.65
2023-02-12T10:05:18.314Z,61.95
2023-02-12T10:08:10.101Z,61.47
2023-02-12T10:11:28.159Z,60.97
2023-02-12T10:14:22.932Z,61.68
2023-02-12T10:17:09.804Z,61.37
2023-02-12T10:20:02.166Z,62.53
2023-02-12T10:22:45.467Z,61.88
2023-02-12T10:25:30.992Z,62.02
2023-02-12T10:28:01.521Z,61.74
2023-02-12T10:30:37.410Z,61.83
2023-02-12T10:33:09.274Z,61.78
2023-02-12T10:35:36.033Z,60.62
2023-02-12T10:38:07.547Z,60.49
2023-02-12T10:40:34.804Z,59.54
2023-02-12T10:43:02.468Z,58.80
2023-02-12T10:45:30.428Z,59.00
2023-02-12T10:48:04.410Z,59.39
2023-02-12T10:50:43.653Z,59.33
2023-02-12T10:53:16.201Z,58.53
2023-02-12T10:55:43.000Z,58.58
2023-02-12T10:58:21.435Z,57.92
2023-02-12T11:00:55.804Z,57.64
2023-02-12T11:03:23.159Z,57.09
2023-02-12T11:05:49.938Z,57.14
2023-02-12T11:08:37.477Z,56.89
2023-02-12T11:11:09.983Z,57.67
2023-02-12T11:13:40.125Z,57.74
2023-02-12T11:16:07.241Z,57.99
2023-02-12T11:18:36.015Z,57.17
2023-02-12T11:21:06.960Z,57.07
2023-02-12T11:23:38.330Z,56.46
2023-02-12T11:26:17.341Z,55.86
2023-02-12T11:28:56.188Z,55.32
2023-02-12T11:31:34.562Z,54.20
2023-02-12T11:34:04.240Z,52.72
2023-02-12T11:36:35.994Z,52.79
2023-02-12T11:39:03.409Z,52.18
2023-02-12T11:41:35.788Z,52.61
2023-02-12T11:44:12.710Z,52.43
2023-02-12T11:46:40.012Z,52.41
2023-02-12T11:49:08.751Z,51.29
2023-02-12T11:51:37.430Z,50.76
2023-02-12T11:54:18.913Z,51.20
2023-02-12T11:56:46.164Z,52.06
2023-02-12T11:59:35.212Z,52.45
2023-02-12T12:02:10.611Z,51.88
2023-02-12T12:04:37.756Z,51.50
2023-02-12T12:07:25.776Z,51.21
2023-02-12T12:09:59.169Z,50.57
2023-02-12T12:12:38.065Z,51.68
2023-02-12T12:15:39.332Z,53.03
2023-02-12T12:18:39.353Z,53.24
2023-02-12T12:21:39.084Z,54.08
2023-02-12T12:24:17.064Z,53.72
2023-02-12T12:26:49.508Z,53.37
2023-02-12T12:29:20.230Z,53.38
2023-02-12T12:31:48.906Z,53.18
2023-02-12T12:34:21.664Z,53.29
2023-02-12T12:37:01.720Z,52.86
2023-02-12T12:39:38.475Z,53.63
2023-02-12T12:42:12.277Z,53.15
2023-02-12T12:45:11.108Z,52.69
2023-02-12T12:47:57.931Z,52.48
2023-02-12T12:50:27.913Z,53.49
2023-02-12T12:53:22.479Z,53.87
2023-02-12T12:55:52.402Z,53.95
2023-02-12T12:58:56.749Z,53.26
2023-02-12T13:01:42.632Z,52.89
2023-02-12T13:04:15.774Z,52.85
2023-02-12T13:06:54.219Z,51.86
2023-02-12T13:09:39.745Z,50.84
2023-02-12T13:12:15.606Z,50.13
